sensor_id;sensor_type;location;lat;lon;timestamp;P1;durP1;ratioP1;P2;durP2;ratioP2
3307;SDS011;1666;48.898;9.182;2023-04-25T00:00:12;2.35;;;2.03;;
3307;SDS011;1666;48.898;9.182;2023-04-25T00:02:43;4.47;;;2.22;;
3307;SDS011;1666;48.898;9.182;2023-04-25T00:05:16;3.55;;;2.55;;
3307;SDS011;1666;48.898;9.182;2023-04-25T00:07:46;3.72;;;2.60;;
3307;SDS011;1666;48.898;9.182;2023-04-25T00:10:16;3.90;;;2.78;;
3307;SDS011;1666;48.898;9.182;2023-04-25T00:12:46;4.00;;;3.50;;
3307;SDS011;1666;48.898;9.182;2023-04-25T00:15:16;5.07;;;3.40;;
3307;SDS011;1666;48.898;9.182;2023-04-25T00:17:46;3.65;;;3.22;;
3307;SDS011;1666;48.898;9.182;2023-04-25T00:20:22;3.55;;;3.00;;
3307;SDS011;1666;48.898;9.182;2023-04-25T00:22:52;4.85;;;3.33;;
3307;SDS011;1666;48.898;9.182;2023-04-25T00:25:22;5.88;;;3.35;;
3307;SDS011;1666;48.898;9.182;2023-04-25T00:27:52;5.68;;;3.88;;
3307;SDS011;1666;48.898;9.182;2023-04-25T00:30:22;4.60;;;3.28;;
3307;SDS011;1666;48.898;9.182;2023-04-25T00:32:52;4.22;;;3.45;;
3307;SDS011;1666;48.898;9.182;2023-04-25T00:35:24;5.50;;;3.72;;
3307;SDS011;1666;48.898;9.182;2023-04-25T00:37:54;5.22;;;3.60;;
3307;SDS011;1666;48.898;9.182;2023-04-25T00:40:24;6.13;;;3.33;;
3307;SDS011;1666;48.898;9.182;2023-04-25T00:42:54;7.70;;;2.95;;
3307;SDS011;1666;48.898;9.182;2023-04-25T00:45:24;4.95;;;3.78;;
3307;SDS011;1666;48.898;9.182;2023-04-25T00:47:57;5.85;;;3.60;;
3307;SDS011;1666;48.898;9.182;2023-04-25T00:50:29;3.97;;;3.30;;
3307;SDS011;1666;48.898;9.182;2023-04-25T00:53:00;5.83;;;3.87;;
3307;SDS011;1666;48.898;9.182;2023-04-25T00:55:31;5.85;;;3.85;;
3307;SDS011;1666;48.898;9.182;2023-04-25T00:58:02;5.70;;;3.55;;
3307;SDS011;1666;48.898;9.182;2023-04-25T01:00:32;4.55;;;3.83;;
3307;SDS011;1666;48.898;9.182;2023-04-25T01:03:02;6.63;;;3.50;;
3307;SDS011;1666;48.898;9.182;2023-04-25T01:05:35;5.45;;;3.45;;
3307;SDS011;1666;48.898;9.182;2023-04-25T01:08:05;4.32;;;3.38;;
3307;SDS011;1666;48.898;9.182;2023-04-25T01:10:36;5.43;;;3.35;;
3307;SDS011;1666;48.898;9.182;2023-04-25T01:13:06;4.40;;;3.35;;
3307;SDS011;1666;48.898;9.182;2023-04-25T01:15:36;5.03;;;3.75;;
3307;SDS011;1666;48.898;9.182;2023-04-25T01:18:06;4.28;;;3.58;;
3307;SDS011;1666;48.898;9.182;2023-04-25T01:20:39;4.65;;;3.45;;
3307;SDS011;1666;48.898;9.182;2023-04-25T01:23:13;5.38;;;3.25;;
3307;SDS011;1666;48.898;9.182;2023-04-25T01:25:43;4.53;;;3.78;;
3307;SDS011;1666;48.898;9.182;2023-04-25T01:28:14;5.28;;;3.78;;
3307;SDS011;1666;48.898;9.182;2023-04-25T01:30:44;4.82;;;3.58;;
3307;SDS011;1666;48.898;9.182;2023-04-25T01:33:15;4.57;;;3.70;;
3307;SDS011;1666;48.898;9.182;2023-04-25T01:35:45;5.97;;;3.50;;
3307;SDS011;1666;48.898;9.182;2023-04-25T01:38:18;3.75;;;3.40;;
3307;SDS011;1666;48.898;9.182;2023-04-25T01:40:49;4.47;;;3.55;;
3307;SDS011;1666;48.898;9.182;2023-04-25T01:43:20;5.35;;;3.45;;
3307;SDS011;1666;48.898;9.182;2023-04-25T01:45:50;4.95;;;3.63;;
3307;SDS011;1666;48.898;9.182;2023-04-25T01:48:20;4.05;;;3.35;;
3307;SDS011;1666;48.898;9.182;2023-04-25T01:50:50;3.53;;;3.05;;
3307;SDS011;1666;48.898;9.182;2023-04-25T01:53:22;5.45;;;3.72;;
3307;SDS011;1666;48.898;9.182;2023-04-25T01:55:53;4.43;;;3.87;;
3307;SDS011;1666;48.898;9.182;2023-04-25T01:58:23;3.55;;;3.13;;
3307;SDS011;1666;48.898;9.182;2023-04-25T02:00:53;3.90;;;3.33;;
3307;SDS011;1666;48.898;9.182;2023-04-25T02:03:23;3.90;;;3.00;;
3307;SDS011;1666;48.898;9.182;2023-04-25T02:05:53;4.65;;;3.10;;
3307;SDS011;1666;48.898;9.182;2023-04-25T02:08:25;5.70;;;3.33;;
3307;SDS011;1666;48.898;9.182;2023-04-25T02:10:56;5.03;;;3.33;;
3307;SDS011;1666;48.898;9.182;2023-04-25T02:13:26;5.40;;;3.40;;
3307;SDS011;1666;48.898;9.182;2023-04-25T02:15:56;4.68;;;3.47;;
3307;SDS011;1666;48.898;9.182;2023-04-25T02:18:27;5.72;;;3.42;;
3307;SDS011;1666;48.898;9.182;2023-04-25T02:20:58;7.85;;;3.85;;
3307;SDS011;1666;48.898;9.182;2023-04-25T02:23:30;4.50;;;3.65;;
3307;SDS011;1666;48.898;9.182;2023-04-25T02:26:00;4.88;;;3.63;;
3307;SDS011;1666;48.898;9.182;2023-04-25T02:28:31;6.43;;;3.75;;
3307;SDS011;1666;48.898;9.182;2023-04-25T02:31:01;6.57;;;4.10;;
3307;SDS011;1666;48.898;9.182;2023-04-25T02:33:31;5.70;;;3.65;;
3307;SDS011;1666;48.898;9.182;2023-04-25T02:36:01;6.78;;;4.50;;
3307;SDS011;1666;48.898;9.182;2023-04-25T02:38:34;5.53;;;3.78;;
3307;SDS011;1666;48.898;9.182;2023-04-25T02:41:04;7.93;;;4.45;;
3307;SDS011;1666;48.898;9.182;2023-04-25T02:43:34;5.72;;;3.90;;
3307;SDS011;1666;48.898;9.182;2023-04-25T02:46:04;5.03;;;4.03;;
3307;SDS011;1666;48.898;9.182;2023-04-25T02:48:34;6.05;;;4.18;;
3307;SDS011;1666;48.898;9.182;2023-04-25T02:51:04;4.38;;;3.97;;
3307;SDS011;1666;48.898;9.182;2023-04-25T02:53:36;6.03;;;4.32;;
3307;SDS011;1666;48.898;9.182;2023-04-25T02:56:06;6.57;;;4.28;;
3307;SDS011;1666;48.898;9.182;2023-04-25T02:58:36;5.28;;;3.83;;
3307;SDS011;1666;48.898;9.182;2023-04-25T03:01:06;6.00;;;4.10;;
3307;SDS011;1666;48.898;9.182;2023-04-25T03:03:36;7.65;;;4.03;;
3307;SDS011;1666;48.898;9.182;2023-04-25T03:06:06;6.03;;;3.80;;
3307;SDS011;1666;48.898;9.182;2023-04-25T03:08:39;6.85;;;3.95;;
3307;SDS011;1666;48.898;9.182;2023-04-25T03:11:09;6.15;;;3.60;;
3307;SDS011;1666;48.898;9.182;2023-04-25T03:13:39;5.85;;;3.58;;
3307;SDS011;1666;48.898;9.182;2023-04-25T03:16:09;6.28;;;3.95;;
3307;SDS011;1666;48.898;9.182;2023-04-25T03:18:39;7.72;;;3.97;;
3307;SDS011;1666;48.898;9.182;2023-04-25T03:21:09;5.95;;;4.30;;
3307;SDS011;1666;48.898;9.182;2023-04-25T03:23:41;5.35;;;4.00;;
3307;SDS011;1666;48.898;9.182;2023-04-25T03:26:12;5.35;;;3.97;;
3307;SDS011;1666;48.898;9.182;2023-04-25T03:28:42;5.90;;;4.20;;
3307;SDS011;1666;48.898;9.182;2023-04-25T03:31:11;5.03;;;4.00;;
3307;SDS011;1666;48.898;9.182;2023-04-25T03:33:41;5.88;;;3.88;;
3307;SDS011;1666;48.898;9.182;2023-04-25T03:36:11;5.50;;;3.72;;
3307;SDS011;1666;48.898;9.182;2023-04-25T03:38:44;6.25;;;3.83;;
3307;SDS011;1666;48.898;9.182;2023-04-25T03:41:14;5.32;;;3.45;;
3307;SDS011;1666;48.898;9.182;2023-04-25T03:43:44;4.63;;;3.45;;
3307;SDS011;1666;48.898;9.182;2023-04-25T03:46:14;6.20;;;3.83;;
3307;SDS011;1666;48.898;9.182;2023-04-25T03:48:44;7.47;;;3.97;;
3307;SDS011;1666;48.898;9.182;2023-04-25T03:51:14;5.57;;;3.35;;
3307;SDS011;1666;48.898;9.182;2023-04-25T03:53:47;4.25;;;3.72;;
3307;SDS011;1666;48.898;9.182;2023-04-25T03:56:17;6.65;;;4.00;;
3307;SDS011;1666;48.898;9.182;2023-04-25T03:58:47;6.60;;;3.80;;
3307;SDS011;1666;48.898;9.182;2023-04-25T04:01:17;6.15;;;3.97;;
3307;SDS011;1666;48.898;9.182;2023-04-25T04:03:47;5.50;;;3.80;;
3307;SDS011;1666;48.898;9.182;2023-04-25T04:06:18;4.22;;;3.65;;
3307;SDS011;1666;48.898;9.182;2023-04-25T04:08:50;5.72;;;4.35;;
3307;SDS011;1666;48.898;9.182;2023-04-25T04:11:21;5.00;;;4.10;;
3307;SDS011;1666;48.898;9.182;2023-04-25T04:13:52;5.28;;;4.22;;
3307;SDS011;1666;48.898;9.182;2023-04-25T04:16:22;5.38;;;4.13;;
3307;SDS011;1666;48.898;9.182;2023-04-25T04:18:52;5.97;;;4.35;;
3307;SDS011;1666;48.898;9.182;2023-04-25T04:21:22;7.15;;;4.95;;
3307;SDS011;1666;48.898;9.182;2023-04-25T04:23:56;6.55;;;4.45;;
3307;SDS011;1666;48.898;9.182;2023-04-25T04:26:27;6.28;;;4.93;;
3307;SDS011;1666;48.898;9.182;2023-04-25T04:28:58;5.93;;;5.03;;
3307;SDS011;1666;48.898;9.182;2023-04-25T04:31:29;5.60;;;4.60;;
3307;SDS011;1666;48.898;9.182;2023-04-25T04:33:59;5.80;;;4.53;;
3307;SDS011;1666;48.898;9.182;2023-04-25T04:36:29;5.60;;;4.50;;
3307;SDS011;1666;48.898;9.182;2023-04-25T04:39:02;8.18;;;5.05;;
3307;SDS011;1666;48.898;9.182;2023-04-25T04:41:33;6.32;;;5.03;;
3307;SDS011;1666;48.898;9.182;2023-04-25T04:44:03;5.97;;;5.13;;
3307;SDS011;1666;48.898;9.182;2023-04-25T04:46:35;5.80;;;5.05;;
3307;SDS011;1666;48.898;9.182;2023-04-25T04:49:08;7.13;;;5.30;;
3307;SDS011;1666;48.898;9.182;2023-04-25T04:51:40;7.32;;;4.90;;
3307;SDS011;1666;48.898;9.182;2023-04-25T04:54:13;5.88;;;4.20;;
3307;SDS011;1666;48.898;9.182;2023-04-25T04:56:43;6.15;;;4.53;;
3307;SDS011;1666;48.898;9.182;2023-04-25T04:59:13;5.53;;;4.20;;
3307;SDS011;1666;48.898;9.182;2023-04-25T05:01:46;7.30;;;4.60;;
3307;SDS011;1666;48.898;9.182;2023-04-25T05:04:16;5.80;;;4.63;;
3307;SDS011;1666;48.898;9.182;2023-04-25T05:06:46;7.57;;;4.55;;
3307;SDS011;1666;48.898;9.182;2023-04-25T05:09:18;7.90;;;5.10;;
3307;SDS011;1666;48.898;9.182;2023-04-25T05:11:52;7.70;;;4.93;;
3307;SDS011;1666;48.898;9.182;2023-04-25T05:14:22;7.40;;;5.22;;
3307;SDS011;1666;48.898;9.182;2023-04-25T05:16:52;8.15;;;5.63;;
3307;SDS011;1666;48.898;9.182;2023-04-25T05:19:22;5.53;;;4.70;;
3307;SDS011;1666;48.898;9.182;2023-04-25T05:21:53;9.38;;;4.97;;
3307;SDS011;1666;48.898;9.182;2023-04-25T05:24:25;8.30;;;5.20;;
3307;SDS011;1666;48.898;9.182;2023-04-25T05:26:55;6.22;;;5.43;;
3307;SDS011;1666;48.898;9.182;2023-04-25T05:29:25;8.55;;;5.10;;
3307;SDS011;1666;48.898;9.182;2023-04-25T05:31:54;6.93;;;5.45;;
3307;SDS011;1666;48.898;9.182;2023-04-25T05:34:24;12.25;;;5.65;;
3307;SDS011;1666;48.898;9.182;2023-04-25T05:36:54;6.63;;;5.70;;
3307;SDS011;1666;48.898;9.182;2023-04-25T05:39:27;7.72;;;5.00;;
3307;SDS011;1666;48.898;9.182;2023-04-25T05:41:57;9.38;;;5.90;;
3307;SDS011;1666;48.898;9.182;2023-04-25T05:44:27;7.15;;;5.63;;
3307;SDS011;1666;48.898;9.182;2023-04-25T05:46:57;7.13;;;5.07;;
3307;SDS011;1666;48.898;9.182;2023-04-25T05:49:27;10.02;;;5.80;;
3307;SDS011;1666;48.898;9.182;2023-04-25T05:51:57;6.88;;;5.30;;
3307;SDS011;1666;48.898;9.182;2023-04-25T05:54:29;7.20;;;5.63;;
3307;SDS011;1666;48.898;9.182;2023-04-25T05:56:59;7.50;;;5.13;;
3307;SDS011;1666;48.898;9.182;2023-04-25T05:59:29;7.28;;;5.28;;
3307;SDS011;1666;48.898;9.182;2023-04-25T06:01:59;6.60;;;4.80;;
3307;SDS011;1666;48.898;9.182;2023-04-25T06:04:29;9.02;;;5.45;;
3307;SDS011;1666;48.898;9.182;2023-04-25T06:07:00;8.57;;;5.22;;
3307;SDS011;1666;48.898;9.182;2023-04-25T06:09:32;7.32;;;4.50;;
3307;SDS011;1666;48.898;9.182;2023-04-25T06:12:03;7.57;;;4.72;;
3307;SDS011;1666;48.898;9.182;2023-04-25T06:14:34;5.78;;;4.22;;
3307;SDS011;1666;48.898;9.182;2023-04-25T06:17:04;6.68;;;4.50;;
3307;SDS011;1666;48.898;9.182;2023-04-25T06:19:35;5.57;;;4.63;;
3307;SDS011;1666;48.898;9.182;2023-04-25T06:22:05;8.50;;;4.97;;
3307;SDS011;1666;48.898;9.182;2023-04-25T06:24:39;6.90;;;4.00;;
3307;SDS011;1666;48.898;9.182;2023-04-25T06:27:08;6.00;;;4.15;;
3307;SDS011;1666;48.898;9.182;2023-04-25T06:29:41;4.63;;;4.03;;
3307;SDS011;1666;48.898;9.182;2023-04-25T06:32:11;4.38;;;3.47;;
3307;SDS011;1666;48.898;9.182;2023-04-25T06:34:41;6.35;;;3.70;;
3307;SDS011;1666;48.898;9.182;2023-04-25T06:37:12;8.63;;;4.32;;
3307;SDS011;1666;48.898;9.182;2023-04-25T06:39:44;7.70;;;3.83;;
3307;SDS011;1666;48.898;9.182;2023-04-25T06:42:14;6.20;;;3.67;;
3307;SDS011;1666;48.898;9.182;2023-04-25T06:44:44;5.50;;;3.78;;
3307;SDS011;1666;48.898;9.182;2023-04-25T06:47:14;5.28;;;4.13;;
3307;SDS011;1666;48.898;9.182;2023-04-25T06:49:44;4.38;;;3.50;;
3307;SDS011;1666;48.898;9.182;2023-04-25T06:52:13;6.18;;;3.47;;
3307;SDS011;1666;48.898;9.182;2023-04-25T06:54:47;5.15;;;3.80;;
3307;SDS011;1666;48.898;9.182;2023-04-25T06:57:16;5.28;;;3.45;;
3307;SDS011;1666;48.898;9.182;2023-04-25T06:59:47;7.35;;;3.35;;
3307;SDS011;1666;48.898;9.182;2023-04-25T07:02:17;4.55;;;3.47;;
3307;SDS011;1666;48.898;9.182;2023-04-25T07:04:48;6.32;;;3.72;;
3307;SDS011;1666;48.898;9.182;2023-04-25T07:07:18;4.88;;;3.63;;
3307;SDS011;1666;48.898;9.182;2023-04-25T07:09:51;5.18;;;3.70;;
3307;SDS011;1666;48.898;9.182;2023-04-25T07:12:21;5.97;;;4.32;;
3307;SDS011;1666;48.898;9.182;2023-04-25T07:14:51;4.97;;;3.40;;
3307;SDS011;1666;48.898;9.182;2023-04-25T07:17:21;6.32;;;4.13;;
3307;SDS011;1666;48.898;9.182;2023-04-25T07:19:51;7.95;;;4.50;;
3307;SDS011;1666;48.898;9.182;2023-04-25T07:22:21;5.43;;;4.38;;
3307;SDS011;1666;48.898;9.182;2023-04-25T07:24:55;7.07;;;4.80;;
3307;SDS011;1666;48.898;9.182;2023-04-25T07:27:25;6.03;;;5.07;;
3307;SDS011;1666;48.898;9.182;2023-04-25T07:29:55;5.40;;;4.20;;
3307;SDS011;1666;48.898;9.182;2023-04-25T07:32:25;7.03;;;4.45;;
3307;SDS011;1666;48.898;9.182;2023-04-25T07:34:55;6.70;;;4.72;;
3307;SDS011;1666;48.898;9.182;2023-04-25T07:37:25;8.15;;;5.25;;
3307;SDS011;1666;48.898;9.182;2023-04-25T07:39:58;10.65;;;5.57;;
3307;SDS011;1666;48.898;9.182;2023-04-25T07:42:28;8.50;;;5.97;;
3307;SDS011;1666;48.898;9.182;2023-04-25T07:44:58;7.47;;;4.80;;
3307;SDS011;1666;48.898;9.182;2023-04-25T07:47:27;9.20;;;5.15;;
3307;SDS011;1666;48.898;9.182;2023-04-25T07:49:57;7.32;;;5.18;;
3307;SDS011;1666;48.898;9.182;2023-04-25T07:52:27;7.35;;;5.40;;
3307;SDS011;1666;48.898;9.182;2023-04-25T07:55:00;8.40;;;6.15;;
3307;SDS011;1666;48.898;9.182;2023-04-25T07:57:30;8.35;;;5.53;;
3307;SDS011;1666;48.898;9.182;2023-04-25T08:00:00;8.32;;;5.78;;
3307;SDS011;1666;48.898;9.182;2023-04-25T08:02:30;11.50;;;6.45;;
3307;SDS011;1666;48.898;9.182;2023-04-25T08:05:00;9.20;;;6.90;;
3307;SDS011;1666;48.898;9.182;2023-04-25T08:07:30;9.52;;;6.80;;
3307;SDS011;1666;48.898;9.182;2023-04-25T08:10:03;12.40;;;7.13;;
3307;SDS011;1666;48.898;9.182;2023-04-25T08:12:33;10.18;;;7.82;;
3307;SDS011;1666;48.898;9.182;2023-04-25T08:15:04;9.55;;;7.13;;
3307;SDS011;1666;48.898;9.182;2023-04-25T08:17:35;10.25;;;7.78;;
3307;SDS011;1666;48.898;9.182;2023-04-25T08:20:06;9.10;;;7.22;;
3307;SDS011;1666;48.898;9.182;2023-04-25T08:22:37;9.70;;;7.45;;
3307;SDS011;1666;48.898;9.182;2023-04-25T08:25:09;11.38;;;7.25;;
3307;SDS011;1666;48.898;9.182;2023-04-25T08:27:39;10.75;;;7.15;;
3307;SDS011;1666;48.898;9.182;2023-04-25T08:30:09;12.13;;;8.20;;
3307;SDS011;1666;48.898;9.182;2023-04-25T08:32:40;10.13;;;7.03;;
3307;SDS011;1666;48.898;9.182;2023-04-25T08:35:10;9.90;;;7.75;;
3307;SDS011;1666;48.898;9.182;2023-04-25T08:37:41;10.60;;;8.02;;
3307;SDS011;1666;48.898;9.182;2023-04-25T08:40:14;11.48;;;6.80;;
3307;SDS011;1666;48.898;9.182;2023-04-25T08:42:45;8.55;;;6.65;;
3307;SDS011;1666;48.898;9.182;2023-04-25T08:45:16;7.72;;;6.72;;
3307;SDS011;1666;48.898;9.182;2023-04-25T08:47:46;8.68;;;7.38;;
3307;SDS011;1666;48.898;9.182;2023-04-25T08:50:21;9.65;;;7.68;;
3307;SDS011;1666;48.898;9.182;2023-04-25T08:52:53;10.48;;;7.60;;
3307;SDS011;1666;48.898;9.182;2023-04-25T08:55:26;15.45;;;8.63;;
3307;SDS011;1666;48.898;9.182;2023-04-25T08:57:57;11.77;;;9.00;;
3307;SDS011;1666;48.898;9.182;2023-04-25T09:00:28;10.52;;;8.52;;
3307;SDS011;1666;48.898;9.182;2023-04-25T09:02:58;12.15;;;9.43;;
3307;SDS011;1666;48.898;9.182;2023-04-25T09:05:29;11.88;;;9.07;;
3307;SDS011;1666;48.898;9.182;2023-04-25T09:07:59;11.75;;;9.40;;
3307;SDS011;1666;48.898;9.182;2023-04-25T09:10:32;11.73;;;9.23;;
3307;SDS011;1666;48.898;9.182;2023-04-25T09:13:04;12.50;;;10.00;;
3307;SDS011;1666;48.898;9.182;2023-04-25T09:15:46;13.95;;;10.43;;
3307;SDS011;1666;48.898;9.182;2023-04-25T09:18:24;16.38;;;11.45;;
3307;SDS011;1666;48.898;9.182;2023-04-25T09:20:57;15.20;;;10.25;;
3307;SDS011;1666;48.898;9.182;2023-04-25T09:23:40;13.50;;;9.80;;
3307;SDS011;1666;48.898;9.182;2023-04-25T09:26:13;12.55;;;10.40;;
3307;SDS011;1666;48.898;9.182;2023-04-25T09:28:44;17.00;;;11.60;;
3307;SDS011;1666;48.898;9.182;2023-04-25T09:31:20;13.85;;;11.18;;
3307;SDS011;1666;48.898;9.182;2023-04-25T09:33:52;14.05;;;10.48;;
3307;SDS011;1666;48.898;9.182;2023-04-25T09:36:30;13.35;;;10.75;;
3307;SDS011;1666;48.898;9.182;2023-04-25T09:39:00;10.63;;;9.00;;
3307;SDS011;1666;48.898;9.182;2023-04-25T09:41:33;10.13;;;8.50;;
3307;SDS011;1666;48.898;9.182;2023-04-25T09:44:07;11.95;;;8.60;;
3307;SDS011;1666;48.898;9.182;2023-04-25T09:46:37;11.70;;;9.02;;
3307;SDS011;1666;48.898;9.182;2023-04-25T09:49:08;9.65;;;8.30;;
3307;SDS011;1666;48.898;9.182;2023-04-25T09:51:38;11.60;;;8.85;;
3307;SDS011;1666;48.898;9.182;2023-04-25T09:54:08;12.32;;;8.98;;
3307;SDS011;1666;48.898;9.182;2023-04-25T09:56:41;13.27;;;9.38;;
3307;SDS011;1666;48.898;9.182;2023-04-25T09:59:11;12.35;;;9.73;;
3307;SDS011;1666;48.898;9.182;2023-04-25T10:01:42;14.85;;;10.05;;
3307;SDS011;1666;48.898;9.182;2023-04-25T10:04:13;9.90;;;8.00;;
3307;SDS011;1666;48.898;9.182;2023-04-25T10:06:48;15.50;;;9.18;;
3307;SDS011;1666;48.898;9.182;2023-04-25T10:09:19;14.05;;;9.00;;
3307;SDS011;1666;48.898;9.182;2023-04-25T10:11:52;15.23;;;10.52;;
3307;SDS011;1666;48.898;9.182;2023-04-25T10:14:23;15.48;;;10.48;;
3307;SDS011;1666;48.898;9.182;2023-04-25T10:16:53;13.25;;;10.38;;
3307;SDS011;1666;48.898;9.182;2023-04-25T10:19:23;14.55;;;9.32;;
3307;SDS011;1666;48.898;9.182;2023-04-25T10:21:55;14.30;;;8.80;;
3307;SDS011;1666;48.898;9.182;2023-04-25T10:24:31;12.45;;;8.25;;
3307;SDS011;1666;48.898;9.182;2023-04-25T10:27:03;10.18;;;7.75;;
3307;SDS011;1666;48.898;9.182;2023-04-25T10:29:34;10.00;;;7.57;;
3307;SDS011;1666;48.898;9.182;2023-04-25T10:32:05;13.07;;;9.95;;
3307;SDS011;1666;48.898;9.182;2023-04-25T10:34:38;13.30;;;9.35;;
3307;SDS011;1666;48.898;9.182;2023-04-25T10:37:09;13.32;;;9.20;;
3307;SDS011;1666;48.898;9.182;2023-04-25T10:39:40;11.82;;;9.43;;
3307;SDS011;1666;48.898;9.182;2023-04-25T10:42:14;10.38;;;7.88;;
3307;SDS011;1666;48.898;9.182;2023-04-25T10:45:00;6.50;;;5.15;;
3307;SDS011;1666;48.898;9.182;2023-04-25T10:47:35;7.32;;;5.72;;
3307;SDS011;1666;48.898;9.182;2023-04-25T10:50:06;28.25;;;20.23;;
3307;SDS011;1666;48.898;9.182;2023-04-25T10:52:38;11.57;;;8.63;;
3307;SDS011;1666;48.898;9.182;2023-04-25T10:55:08;13.55;;;9.55;;
3307;SDS011;1666;48.898;9.182;2023-04-25T10:57:42;11.23;;;7.88;;
3307;SDS011;1666;48.898;9.182;2023-04-25T11:00:15;11.68;;;8.40;;
3307;SDS011;1666;48.898;9.182;2023-04-25T11:02:57;12.32;;;8.60;;
3307;SDS011;1666;48.898;9.182;2023-04-25T11:05:29;12.70;;;8.05;;
3307;SDS011;1666;48.898;9.182;2023-04-25T11:08:16;11.60;;;8.63;;
3307;SDS011;1666;48.898;9.182;2023-04-25T11:10:56;9.63;;;7.10;;
3307;SDS011;1666;48.898;9.182;2023-04-25T11:13:31;8.23;;;6.50;;
3307;SDS011;1666;48.898;9.182;2023-04-25T11:16:01;7.93;;;5.85;;
3307;SDS011;1666;48.898;9.182;2023-04-25T11:18:40;6.72;;;5.82;;
3307;SDS011;1666;48.898;9.182;2023-04-25T11:21:10;10.77;;;6.97;;
3307;SDS011;1666;48.898;9.182;2023-04-25T11:23:41;9.50;;;6.32;;
3307;SDS011;1666;48.898;9.182;2023-04-25T11:26:14;12.52;;;7.57;;
3307;SDS011;1666;48.898;9.182;2023-04-25T11:28:48;9.25;;;6.80;;
3307;SDS011;1666;48.898;9.182;2023-04-25T11:31:19;7.75;;;6.43;;
3307;SDS011;1666;48.898;9.182;2023-04-25T11:33:50;9.18;;;6.38;;
3307;SDS011;1666;48.898;9.182;2023-04-25T11:36:20;8.77;;;6.60;;
3307;SDS011;1666;48.898;9.182;2023-04-25T11:38:52;10.50;;;7.28;;
3307;SDS011;1666;48.898;9.182;2023-04-25T11:41:23;8.65;;;5.95;;
3307;SDS011;1666;48.898;9.182;2023-04-25T11:43:57;8.73;;;5.75;;
3307;SDS011;1666;48.898;9.182;2023-04-25T11:46:27;9.13;;;6.63;;
3307;SDS011;1666;48.898;9.182;2023-04-25T11:48:57;10.38;;;6.45;;
3307;SDS011;1666;48.898;9.182;2023-04-25T11:51:27;12.10;;;7.50;;
3307;SDS011;1666;48.898;9.182;2023-04-25T11:53:57;9.95;;;7.18;;
3307;SDS011;1666;48.898;9.182;2023-04-25T11:56:27;7.50;;;6.25;;
3307;SDS011;1666;48.898;9.182;2023-04-25T11:59:00;8.57;;;6.43;;
3307;SDS011;1666;48.898;9.182;2023-04-25T12:01:33;9.82;;;7.35;;
3307;SDS011;1666;48.898;9.182;2023-04-25T12:04:13;9.43;;;6.53;;
3307;SDS011;1666;48.898;9.182;2023-04-25T12:06:45;9.80;;;7.25;;
3307;SDS011;1666;48.898;9.182;2023-04-25T12:09:17;10.15;;;7.30;;
3307;SDS011;1666;48.898;9.182;2023-04-25T12:11:52;10.60;;;6.85;;
3307;SDS011;1666;48.898;9.182;2023-04-25T12:14:25;11.73;;;8.20;;
3307;SDS011;1666;48.898;9.182;2023-04-25T12:16:57;13.07;;;7.80;;
3307;SDS011;1666;48.898;9.182;2023-04-25T12:19:31;10.60;;;7.47;;
3307;SDS011;1666;48.898;9.182;2023-04-25T12:22:02;12.07;;;7.97;;
3307;SDS011;1666;48.898;9.182;2023-04-25T12:27:17;12.23;;;8.50;;
3307;SDS011;1666;48.898;9.182;2023-04-25T12:29:54;10.90;;;7.43;;
3307;SDS011;1666;48.898;9.182;2023-04-25T12:32:25;11.77;;;8.15;;
3307;SDS011;1666;48.898;9.182;2023-04-25T12:34:55;14.20;;;8.85;;
3307;SDS011;1666;48.898;9.182;2023-04-25T12:37:25;12.40;;;8.25;;
3307;SDS011;1666;48.898;9.182;2023-04-25T12:39:56;9.75;;;7.80;;
3307;SDS011;1666;48.898;9.182;2023-04-25T12:42:26;8.93;;;7.03;;
3307;SDS011;1666;48.898;9.182;2023-04-25T12:44:58;11.65;;;7.78;;
3307;SDS011;1666;48.898;9.182;2023-04-25T12:47:29;11.07;;;7.60;;
3307;SDS011;1666;48.898;9.182;2023-04-25T12:50:01;10.70;;;7.68;;
3307;SDS011;1666;48.898;9.182;2023-04-25T12:52:41;10.93;;;7.90;;
3307;SDS011;1666;48.898;9.182;2023-04-25T12:55:11;10.73;;;7.32;;
3307;SDS011;1666;48.898;9.182;2023-04-25T12:57:41;11.85;;;7.97;;
3307;SDS011;1666;48.898;9.182;2023-04-25T13:00:14;10.20;;;7.30;;
3307;SDS011;1666;48.898;9.182;2023-04-25T13:02:46;11.30;;;6.95;;
3307;SDS011;1666;48.898;9.182;2023-04-25T13:05:16;13.32;;;8.30;;
3307;SDS011;1666;48.898;9.182;2023-04-25T13:07:46;12.68;;;9.15;;
3307;SDS011;1666;48.898;9.182;2023-04-25T13:10:16;12.63;;;9.50;;
3307;SDS011;1666;48.898;9.182;2023-04-25T13:12:47;14.38;;;9.68;;
3307;SDS011;1666;48.898;9.182;2023-04-25T13:15:19;16.52;;;9.35;;
3307;SDS011;1666;48.898;9.182;2023-04-25T13:17:49;17.05;;;10.40;;
3307;SDS011;1666;48.898;9.182;2023-04-25T13:20:19;9.50;;;8.27;;
3307;SDS011;1666;48.898;9.182;2023-04-25T13:22:50;15.15;;;9.27;;
3307;SDS011;1666;48.898;9.182;2023-04-25T13:25:19;13.07;;;9.27;;
3307;SDS011;1666;48.898;9.182;2023-04-25T13:27:50;14.82;;;8.50;;
3307;SDS011;1666;48.898;9.182;2023-04-25T13:30:22;15.48;;;8.65;;
3307;SDS011;1666;48.898;9.182;2023-04-25T13:32:53;17.40;;;10.77;;
3307;SDS011;1666;48.898;9.182;2023-04-25T13:35:30;19.15;;;11.27;;
3307;SDS011;1666;48.898;9.182;2023-04-25T13:38:00;15.10;;;10.50;;
3307;SDS011;1666;48.898;9.182;2023-04-25T13:40:31;13.93;;;9.68;;
3307;SDS011;1666;48.898;9.182;2023-04-25T13:43:01;14.10;;;11.20;;
3307;SDS011;1666;48.898;9.182;2023-04-25T13:45:35;14.93;;;10.07;;
3307;SDS011;1666;48.898;9.182;2023-04-25T13:48:05;13.80;;;9.40;;
3307;SDS011;1666;48.898;9.182;2023-04-25T13:50:35;15.32;;;9.65;;
3307;SDS011;1666;48.898;9.182;2023-04-25T13:53:05;18.10;;;10.80;;
3307;SDS011;1666;48.898;9.182;2023-04-25T13:55:35;11.65;;;9.07;;
3307;SDS011;1666;48.898;9.182;2023-04-25T13:58:06;12.57;;;9.23;;
3307;SDS011;1666;48.898;9.182;2023-04-25T14:00:39;15.10;;;8.90;;
3307;SDS011;1666;48.898;9.182;2023-04-25T14:03:09;11.82;;;8.05;;
3307;SDS011;1666;48.898;9.182;2023-04-25T14:05:40;11.10;;;7.93;;
3307;SDS011;1666;48.898;9.182;2023-04-25T14:08:10;11.27;;;7.38;;
3307;SDS011;1666;48.898;9.182;2023-04-25T14:10:40;12.55;;;8.15;;
3307;SDS011;1666;48.898;9.182;2023-04-25T14:13:10;10.75;;;7.30;;
3307;SDS011;1666;48.898;9.182;2023-04-25T14:15:42;9.82;;;7.57;;
3307;SDS011;1666;48.898;9.182;2023-04-25T14:18:12;11.95;;;7.40;;
3307;SDS011;1666;48.898;9.182;2023-04-25T14:20:42;10.65;;;8.13;;
3307;SDS011;1666;48.898;9.182;2023-04-25T14:23:12;9.48;;;7.22;;
3307;SDS011;1666;48.898;9.182;2023-04-25T14:25:43;11.18;;;7.10;;
3307;SDS011;1666;48.898;9.182;2023-04-25T14:28:14;9.52;;;7.28;;
3307;SDS011;1666;48.898;9.182;2023-04-25T14:30:46;10.45;;;6.78;;
3307;SDS011;1666;48.898;9.182;2023-04-25T14:33:16;9.48;;;6.68;;
3307;SDS011;1666;48.898;9.182;2023-04-25T14:35:53;10.45;;;7.15;;
3307;SDS011;1666;48.898;9.182;2023-04-25T14:38:23;11.68;;;7.75;;
3307;SDS011;1666;48.898;9.182;2023-04-25T14:40:53;10.23;;;6.93;;
3307;SDS011;1666;48.898;9.182;2023-04-25T14:43:24;10.98;;;7.22;;
3307;SDS011;1666;48.898;9.182;2023-04-25T14:45:57;10.35;;;7.63;;
3307;SDS011;1666;48.898;9.182;2023-04-25T14:48:28;9.95;;;7.05;;
3307;SDS011;1666;48.898;9.182;2023-04-25T14:50:58;10.40;;;5.97;;
3307;SDS011;1666;48.898;9.182;2023-04-25T14:53:29;9.60;;;6.60;;
3307;SDS011;1666;48.898;9.182;2023-04-25T14:56:00;9.98;;;6.78;;
3307;SDS011;1666;48.898;9.182;2023-04-25T14:58:30;12.57;;;6.35;;
3307;SDS011;1666;48.898;9.182;2023-04-25T15:01:03;8.82;;;6.50;;
3307;SDS011;1666;48.898;9.182;2023-04-25T15:03:33;10.75;;;6.40;;
3307;SDS011;1666;48.898;9.182;2023-04-25T15:06:06;8.93;;;5.68;;
3307;SDS011;1666;48.898;9.182;2023-04-25T15:08:36;14.05;;;6.40;;
3307;SDS011;1666;48.898;9.182;2023-04-25T15:11:06;8.70;;;6.10;;
3307;SDS011;1666;48.898;9.182;2023-04-25T15:13:37;9.43;;;6.10;;
3307;SDS011;1666;48.898;9.182;2023-04-25T15:16:10;7.35;;;5.50;;
3307;SDS011;1666;48.898;9.182;2023-04-25T15:18:40;9.88;;;6.63;;
3307;SDS011;1666;48.898;9.182;2023-04-25T15:21:10;10.55;;;6.53;;
3307;SDS011;1666;48.898;9.182;2023-04-25T15:23:40;9.73;;;6.38;;
3307;SDS011;1666;48.898;9.182;2023-04-25T15:26:11;10.52;;;6.70;;
3307;SDS011;1666;48.898;9.182;2023-04-25T15:28:41;9.02;;;6.78;;
3307;SDS011;1666;48.898;9.182;2023-04-25T15:31:13;8.60;;;6.45;;
3307;SDS011;1666;48.898;9.182;2023-04-25T15:33:43;10.25;;;6.63;;
3307;SDS011;1666;48.898;9.182;2023-04-25T15:36:13;11.52;;;6.75;;